Time;durP1;ratioP1;P1;durP2;ratioP2;P2;SDS_P1;SDS_P2;PMS_P1;PMS_P2;Temp;Humidity;BMP_temperature;BMP_pressure;BME280_temperature;BME280_humidity;BME280_pressure;Samples;Min_cycle;Max_cycle;Signal;HPM_P1;HPM_P2
2023/05/06 00:01:04;;;;;;;7.10;2.90;;;15.30;96.00;;;;;;6123624;23;20065;-94
2023/05/06 00:03:30;;;;;;;4.63;2.88;;;15.30;96.00;;;;;;6122887;23;20085;-94
2023/05/06 00:05:56;;;;;;;4.97;2.40;;;15.30;96.00;;;;;;6124083;23;19998;-94
2023/05/06 00:08:22;;;;;;;3.20;2.70;;;15.30;96.00;;;;;;6124135;23;20010;-95
2023/05/06 00:10:48;;;;;;;6.03;2.92;;;15.30;96.00;;;;;;6124417;23;20005;-94
2023/05/06 00:13:13;;;;;;;7.13;2.35;;;15.30;96.30;;;;;;6124942;23;20488;-94
2023/05/06 00:15:39;;;;;;;4.35;2.55;;;15.30;96.00;;;;;;6126001;23;20471;-94
2023/05/06 00:18:05;;;;;;;5.07;2.80;;;15.30;96.00;;;;;;6125869;23;19998;-95
2023/05/06 00:20:31;;;;;;;3.10;2.80;;;15.30;96.00;;;;;;6125778;23;20129;-95
2023/05/06 00:22:58;;;;;;;4.40;3.03;;;15.30;96.00;;;;;;6125265;23;20017;-94
2023/05/06 00:25:24;;;;;;;5.72;2.80;;;15.30;96.00;;;;;;6127463;23;19998;-94
2023/05/06 00:27:50;;;;;;;4.57;2.47;;;15.30;96.00;;;;;;6126900;23;20101;-94
2023/05/06 00:30:16;;;;;;;10.68;2.92;;;15.20;96.00;;;;;;6125914;23;20085;-93
2023/05/06 00:32:42;;;;;;;3.28;2.63;;;15.30;96.00;;;;;;6126283;23;20017;-95
2023/05/06 00:35:08;;;;;;;4.13;2.28;;;15.30;96.00;;;;;;6126341;23;20089;-94
2023/05/06 00:37:34;;;;;;;4.25;2.70;;;15.30;96.00;;;;;;6126000;23;20503;-94
2023/05/06 00:40:01;;;;;;;3.40;2.22;;;15.20;96.00;;;;;;6124469;23;20013;-95
2023/05/06 00:42:27;;;;;;;5.38;2.72;;;15.30;96.00;;;;;;6124438;23;20014;-95
2023/05/06 00:44:53;;;;;;;4.15;2.33;;;15.30;96.00;;;;;;6125585;23;20467;-94
2023/05/06 00:47:21;;;;;;;3.35;2.15;;;15.30;96.00;;;;;;6126021;23;20012;-94
2023/05/06 00:49:47;;;;;;;3.42;2.53;;;15.30;96.00;;;;;;6125387;23;20435;-95
2023/05/06 00:52:14;;;;;;;5.68;2.72;;;15.30;96.00;;;;;;6099941;23;20025;-94
2023/05/06 00:54:40;;;;;;;3.78;1.98;;;15.20;96.00;;;;;;6125287;23;20022;-95
2023/05/06 00:57:06;;;;;;;7.82;2.78;;;15.20;96.00;;;;;;6125615;23;20002;-94
2023/05/06 00:59:32;;;;;;;3.78;2.47;;;15.20;96.00;;;;;;6125127;23;20006;-94
2023/05/06 01:01:59;;;;;;;7.75;2.72;;;15.20;96.00;;;;;;6124336;23;20424;-95
2023/05/06 01:04:27;;;;;;;4.25;2.03;;;15.20;96.00;;;;;;6124974;23;20010;-94
2023/05/06 01:07:23;;;;;;;5.78;2.20;;;15.20;96.00;;;;;;6125606;23;20336;-95
2023/05/06 01:10:03;;;;;;;6.05;2.70;;;15.20;96.00;;;;;;6125067;23;20010;-92
2023/05/06 01:12:56;;;;;;;;;;;15.20;96.00;;;;;;6125173;23;20009;-94
2023/05/06 01:15:36;;;;;;;9.05;2.80;;;15.20;96.00;;;;;;6120612;23;19900;-94
2023/05/06 01:18:08;;;;;;;5.05;2.70;;;15.20;96.00;;;;;;6121857;23;20017;-94
2023/05/06 01:20:37;;;;;;;3.47;2.70;;;15.20;96.00;;;;;;6124767;23;20050;-94
2023/05/06 01:23:13;;;;;;;5.35;2.65;;;15.20;96.00;;;;;;6124495;23;20446;-94
2023/05/06 01:25:40;;;;;;;7.85;3.50;;;15.20;96.00;;;;;;6124397;23;20009;-93
2023/05/06 01:28:09;;;;;;;6.35;3.22;;;15.20;96.00;;;;;;6124814;23;20006;-94
2023/05/06 01:30:58;;;;;;;6.35;3.25;;;15.20;96.00;;;;;;6125262;23;20137;-94
2023/05/06 01:33:40;;;;;;;9.50;4.28;;;15.10;96.00;;;;;;6123786;23;20347;-93
2023/05/06 01:36:14;;;;;;;5.00;3.22;;;15.20;96.00;;;;;;6124075;23;20010;-94
2023/05/06 01:38:49;;;;;;;14.48;4.32;;;15.10;95.90;;;;;;6124906;23;20014;-95
2023/05/06 01:41:17;;;;;;;8.70;4.35;;;15.10;96.00;;;;;;6123996;23;20009;-94
2023/05/06 01:43:46;;;;;;;8.00;4.15;;;15.10;95.90;;;;;;6123378;23;20041;-94
2023/05/06 01:46:16;;;;;;;6.53;4.18;;;15.10;95.90;;;;;;6101101;23;20021;-95
2023/05/06 01:48:44;;;;;;;;;;;15.10;95.90;;;;;;6125407;23;20009;-93
2023/05/06 01:51:10;;;;;;;4.97;2.88;;;15.10;95.90;;;;;;6125284;23;19904;-95
2023/05/06 01:53:35;;;;;;;6.68;2.55;;;15.10;95.90;;;;;;6124927;23;20010;-94
2023/05/06 01:56:01;;;;;;;6.60;3.30;;;15.10;95.90;;;;;;6124413;23;20363;-94
2023/05/06 01:58:27;;;;;;;5.43;3.17;;;15.10;95.90;;;;;;6125617;23;20005;-94
2023/05/06 02:00:53;;;;;;;6.97;3.22;;;15.10;95.90;;;;;;6124599;23;20040;-94
2023/05/06 02:03:19;;;;;;;4.85;2.95;;;15.10;95.90;;;;;;6123933;23;20010;-95
2023/05/06 02:05:44;;;;;;;7.38;3.28;;;15.10;95.90;;;;;;6125212;23;20002;-94
2023/05/06 02:08:10;;;;;;;3.70;2.67;;;15.10;95.90;;;;;;6125101;23;20005;-95
2023/05/06 02:10:36;;;;;;;16.40;3.45;;;15.10;95.90;;;;;;6125277;23;20010;-95
2023/05/06 02:13:01;;;;;;;7.00;3.00;;;15.10;95.90;;;;;;6125026;23;20424;-94
2023/05/06 02:15:27;;;;;;;7.07;3.17;;;15.10;95.80;;;;;;6127780;23;20029;-95
2023/05/06 02:17:53;;;;;;;6.68;3.35;;;15.10;95.90;;;;;;6125563;23;20061;-95
2023/05/06 02:20:19;;;;;;;8.85;3.38;;;15.10;95.80;;;;;;6127074;23;20366;-95
2023/05/06 02:22:45;;;;;;;9.27;2.80;;;15.10;95.90;;;;;;6125219;23;20020;-94
2023/05/06 02:25:11;;;;;;;3.83;2.88;;;15.10;95.90;;;;;;6125064;23;20076;-96
2023/05/06 02:27:37;;;;;;;5.47;2.97;;;15.00;95.80;;;;;;6125362;23;19994;-95
2023/05/06 02:30:03;;;;;;;7.28;3.80;;;15.10;95.70;;;;;;6076374;23;20057;-94
2023/05/06 02:32:28;;;;;;;3.95;2.90;;;15.00;95.80;;;;;;6123639;23;20545;-95
2023/05/06 02:34:54;;;;;;;5.93;3.80;;;15.10;95.90;;;;;;6122046;23;20427;-94
2023/05/06 02:37:20;;;;;;;12.82;3.67;;;15.00;95.80;;;;;;6099414;23;20022;-94
2023/05/06 02:39:46;;;;;;;5.72;3.50;;;15.00;95.80;;;;;;6100633;23;20013;-95
2023/05/06 02:42:15;;;;;;;3.83;2.53;;;15.00;95.80;;;;;;6123609;23;20010;-95
2023/05/06 02:44:41;;;;;;;5.13;2.83;;;15.00;95.90;;;;;;6124152;23;20332;-94
2023/05/06 02:47:07;;;;;;;9.38;3.45;;;15.00;95.90;;;;;;6124317;23;20081;-95
2023/05/06 02:49:33;;;;;;;8.20;3.33;;;15.00;95.80;;;;;;6124318;23;20031;-94
2023/05/06 02:51:58;;;;;;;7.18;3.28;;;15.00;95.80;;;;;;6124022;23;20077;-95
2023/05/06 02:54:26;;;;;;;4.40;3.25;;;15.00;95.80;;;;;;6124609;23;20009;-95
2023/05/06 02:56:52;;;;;;;7.25;3.78;;;15.00;95.70;;;;;;6124233;23;20053;-94
2023/05/06 02:59:18;;;;;;;6.95;3.65;;;15.00;95.70;;;;;;6124438;23;20068;-95
2023/05/06 03:01:44;;;;;;;8.05;3.38;;;15.00;95.80;;;;;;6123907;23;20383;-95
2023/05/06 03:04:09;;;;;;;7.03;3.70;;;15.00;95.80;;;;;;6123759;23;20020;-94
2023/05/06 03:06:35;;;;;;;6.38;3.22;;;15.00;95.80;;;;;;6124610;23;20013;-95
2023/05/06 03:09:01;;;;;;;6.43;3.33;;;15.00;95.80;;;;;;6099865;23;20057;-94
2023/05/06 03:11:30;;;;;;;4.38;3.30;;;15.00;95.80;;;;;;6124067;23;20002;-95
2023/05/06 03:13:56;;;;;;;5.57;3.80;;;15.00;95.70;;;;;;6123432;23;20033;-94
2023/05/06 03:16:23;;;;;;;6.80;3.55;;;15.00;95.70;;;;;;6125821;23;20375;-95
2023/05/06 03:18:48;;;;;;;7.03;3.55;;;15.00;95.70;;;;;;6125250;23;20038;-94
2023/05/06 03:21:14;;;;;;;5.55;3.70;;;15.00;95.70;;;;;;6123643;23;20013;-93
2023/05/06 03:23:40;;;;;;;6.20;3.63;;;15.00;95.70;;;;;;6124252;23;20423;-94
2023/05/06 03:26:06;;;;;;;4.57;3.42;;;15.00;95.70;;;;;;6124157;23;20085;-93
2023/05/06 03:28:32;;;;;;;5.65;2.95;;;15.00;95.70;;;;;;6124390;23;20080;-94
2023/05/06 03:30:58;;;;;;;3.92;3.00;;;15.00;95.60;;;;;;6125021;23;20060;-95
2023/05/06 03:33:24;;;;;;;4.50;3.08;;;15.00;95.70;;;;;;6098779;23;20020;-93
2023/05/06 03:35:50;;;;;;;5.40;3.25;;;15.00;95.50;;;;;;6123708;23;20085;-94
2023/05/06 03:38:16;;;;;;;5.47;3.40;;;14.90;95.50;;;;;;6123310;23;20005;-94
2023/05/06 03:40:42;;;;;;;5.80;3.10;;;15.00;95.80;;;;;;6124235;23;20013;-95
2023/05/06 03:43:08;;;;;;;4.85;3.15;;;15.00;95.60;;;;;;6123473;23;20005;-94
2023/05/06 03:45:34;;;;;;;4.28;3.35;;;14.90;95.50;;;;;;6125353;23;20034;-94
2023/05/06 03:48:00;;;;;;;6.57;3.08;;;14.90;95.50;;;;;;6125438;23;20013;-94
2023/05/06 03:50:26;;;;;;;9.82;3.38;;;14.90;95.40;;;;;;6101540;23;20390;-95
2023/05/06 03:52:52;;;;;;;4.20;2.78;;;14.90;95.50;;;;;;6101255;23;20431;-94
2023/05/06 03:55:18;;;;;;;3.33;2.17;;;14.90;95.60;;;;;;6125810;23;20006;-95
2023/05/06 03:57:44;;;;;;;6.85;3.58;;;14.90;95.60;;;;;;6126207;23;20010;-94
2023/05/06 04:00:11;;;;;;;5.32;3.67;;;14.90;95.50;;;;;;6126327;23;20002;-95
2023/05/06 04:02:37;;;;;;;3.70;2.80;;;14.90;95.60;;;;;;6125579;23;20012;-95
2023/05/06 04:05:03;;;;;;;5.72;3.88;;;14.90;95.50;;;;;;6126011;23;20005;-94
2023/05/06 04:07:29;;;;;;;5.30;3.60;;;14.90;95.50;;;;;;6125553;23;20080;-94
2023/05/06 04:09:58;;;;;;;5.18;3.67;;;14.90;95.80;;;;;;6126383;23;20006;-94
2023/05/06 04:12:24;;;;;;;5.47;3.30;;;14.90;95.50;;;;;;6126055;23;20397;-94
2023/05/06 04:14:50;;;;;;;4.78;3.38;;;14.90;95.50;;;;;;6125575;23;20009;-95
2023/05/06 04:17:16;;;;;;;4.35;3.08;;;14.90;95.50;;;;;;6100500;23;20431;-95
2023/05/06 04:19:42;;;;;;;7.63;3.40;;;14.90;95.40;;;;;;6125314;23;20037;-94
2023/05/06 04:22:08;;;;;;;7.22;3.00;;;14.90;95.50;;;;;;6124651;23;20013;-95
2023/05/06 04:24:33;;;;;;;6.47;3.00;;;14.90;95.40;;;;;;6125382;23;20376;-95
2023/05/06 04:27:01;;;;;;;8.38;3.50;;;14.90;95.60;;;;;;6125914;23;20327;-95
2023/05/06 04:29:27;;;;;;;4.47;2.83;;;14.90;95.50;;;;;;6101917;23;20002;-94
2023/05/06 04:31:53;;;;;;;5.88;2.83;;;14.80;95.40;;;;;;6125660;23;20611;-95
2023/05/06 04:34:19;;;;;;;8.43;3.25;;;14.90;95.50;;;;;;6125988;23;20017;-95
2023/05/06 04:36:46;;;;;;;5.15;3.40;;;14.90;95.40;;;;;;6101130;23;20381;-95
2023/05/06 04:39:13;;;;;;;5.40;3.35;;;14.90;95.40;;;;;;6125520;23;20014;-92
2023/05/06 04:41:38;;;;;;;5.10;2.88;;;14.90;95.40;;;;;;6125539;23;20337;-94
2023/05/06 04:44:04;;;;;;;7.63;3.80;;;14.80;95.40;;;;;;6125578;23;20006;-94
2023/05/06 04:46:30;;;;;;;5.78;3.03;;;14.90;95.40;;;;;;6125486;23;20021;-93
2023/05/06 04:48:57;;;;;;;3.88;2.72;;;14.90;95.40;;;;;;6126273;23;20006;-94
2023/05/06 04:51:22;;;;;;;4.05;2.63;;;14.80;95.40;;;;;;6126102;23;20085;-94
2023/05/06 04:53:48;;;;;;;3.70;2.72;;;14.90;95.40;;;;;;6125569;23;20553;-94
2023/05/06 04:56:14;;;;;;;3.78;2.70;;;14.90;95.50;;;;;;6149807;23;20060;-94
2023/05/06 04:58:40;;;;;;;3.33;2.78;;;14.90;95.50;;;;;;6125451;23;20009;-94
2023/05/06 05:01:08;;;;;;;4.35;3.03;;;14.90;95.50;;;;;;6124501;23;20005;-94
2023/05/06 05:03:34;;;;;;;4.07;2.55;;;14.80;95.60;;;;;;6124894;23;20454;-93
2023/05/06 05:05:59;;;;;;;3.78;3.13;;;14.90;95.50;;;;;;6125001;23;20002;-93
2023/05/06 05:08:25;;;;;;;4.13;3.10;;;14.80;95.60;;;;;;6124754;23;20086;-94
2023/05/06 05:10:51;;;;;;;7.78;3.15;;;14.90;95.60;;;;;;6125109;23;20017;-95
2023/05/06 05:13:17;;;;;;;4.18;3.00;;;14.80;95.60;;;;;;6125068;23;20002;-95
2023/05/06 05:15:43;;;;;;;3.40;2.80;;;14.80;95.60;;;;;;6101110;23;20021;-94
2023/05/06 05:18:09;;;;;;;4.57;2.95;;;14.90;95.70;;;;;;6125084;23;20002;-95
2023/05/06 05:20:35;;;;;;;5.07;3.03;;;14.90;95.70;;;;;;6125758;23;20316;-95
2023/05/06 05:23:01;;;;;;;2.83;2.50;;;14.90;95.70;;;;;;6125686;23;20010;-95
2023/05/06 05:25:26;;;;;;;7.10;3.33;;;14.90;95.80;;;;;;6124707;23;20002;-95
2023/05/06 05:27:52;;;;;;;4.88;3.28;;;14.90;95.70;;;;;;6124458;23;20077;-94
2023/05/06 05:30:18;;;;;;;4.45;3.10;;;14.90;95.70;;;;;;6124523;23;20032;-95
2023/05/06 05:32:44;;;;;;;5.95;2.83;;;14.90;95.80;;;;;;6077026;23;20082;-95
2023/05/06 05:35:10;;;;;;;11.30;3.38;;;14.90;95.80;;;;;;6124625;23;20106;-94
2023/05/06 05:37:36;;;;;;;5.03;3.20;;;14.90;95.80;;;;;;6124731;23;20006;-94
2023/05/06 05:40:02;;;;;;;7.47;3.03;;;14.90;95.80;;;;;;6125479;23;20010;-95
2023/05/06 05:42:32;;;;;;;5.00;3.15;;;14.90;95.80;;;;;;6126254;23;20033;-94
2023/05/06 05:44:58;;;;;;;3.63;2.78;;;14.90;95.80;;;;;;6126200;23;20085;-95
2023/05/06 05:47:24;;;;;;;4.50;3.10;;;14.90;95.80;;;;;;6126208;23;20009;-96
2023/05/06 05:49:50;;;;;;;4.07;2.72;;;14.90;95.80;;;;;;6125388;23;20089;-96
2023/05/06 05:52:16;;;;;;;6.88;3.15;;;14.90;95.80;;;;;;6124421;23;20009;-94
2023/05/06 05:54:42;;;;;;;6.63;3.13;;;14.90;95.80;;;;;;6124522;23;20321;-95
2023/05/06 05:57:08;;;;;;;5.18;3.47;;;14.90;95.80;;;;;;6100268;23;20411;-96
2023/05/06 05:59:34;;;;;;;5.75;3.38;;;14.90;95.80;;;;;;6124631;23;20018;-95
2023/05/06 06:01:59;;;;;;;5.15;3.67;;;14.90;95.80;;;;;;6124485;23;20006;-96
2023/05/06 06:04:25;;;;;;;4.63;2.85;;;14.90;95.80;;;;;;6124725;23;20094;-95
2023/05/06 06:06:51;;;;;;;4.55;3.35;;;14.90;95.90;;;;;;6124246;23;20029;-95
2023/05/06 06:09:17;;;;;;;10.15;3.33;;;14.90;95.90;;;;;;6123756;23;20105;-96
2023/05/06 06:11:43;;;;;;;4.93;3.75;;;15.00;96.00;;;;;;6100210;23;20002;-95
2023/05/06 06:14:10;;;;;;;5.30;3.50;;;15.00;96.00;;;;;;6125026;23;20017;-96
2023/05/06 06:16:35;;;;;;;8.00;3.75;;;15.00;96.00;;;;;;6125366;23;20006;-96
2023/05/06 06:19:02;;;;;;;7.45;3.80;;;15.00;96.00;;;;;;6125348;23;20057;-96
2023/05/06 06:21:27;;;;;;;10.00;3.38;;;15.00;96.00;;;;;;6101302;23;20045;-96
2023/05/06 06:23:53;;;;;;;5.90;3.28;;;15.00;96.00;;;;;;6100067;23;20006;-96
2023/05/06 06:26:20;;;;;;;7.47;3.70;;;15.00;96.00;;;;;;6124360;23;20002;-96
2023/05/06 06:28:46;;;;;;;6.97;4.10;;;15.00;96.00;;;;;;6124959;23;20020;-96
2023/05/06 06:31:12;;;;;;;5.35;3.70;;;15.00;96.00;;;;;;6124763;23;20423;-96
2023/05/06 06:33:38;;;;;;;7.22;4.45;;;15.10;96.00;;;;;;6125478;23;20092;-96
2023/05/06 06:36:07;;;;;;;4.63;4.00;;;15.10;96.00;;;;;;6125491;23;20323;-96
2023/05/06 06:38:42;;;;;;;7.20;4.22;;;15.10;96.00;;;;;;6100597;23;20021;-96
2023/05/06 06:41:34;;;;;;;5.88;3.85;;;15.10;96.00;;;;;;6124442;23;20466;-96
2023/05/06 06:44:05;;;;;;;7.82;4.40;;;15.10;96.00;;;;;;6040575;23;20094;-96
2023/05/06 06:46:31;;;;;;;11.60;3.97;;;15.10;95.90;;;;;;6036308;23;20429;-96
2023/05/06 06:48:57;;;;;;;11.15;5.28;;;15.20;95.90;;;;;;6012724;23;20094;-96
2023/05/06 06:51:23;;;;;;;7.35;4.65;;;15.20;95.90;;;;;;6012344;23;20010;-96
2023/05/06 06:53:50;;;;;;;9.43;5.05;;;15.20;95.80;;;;;;5988535;23;20011;-96
2023/05/06 06:56:16;;;;;;;7.13;4.60;;;15.30;95.80;;;;;;6013641;23;20008;-95
2023/05/06 06:58:42;;;;;;;8.40;4.20;;;15.30;95.70;;;;;;6013092;23;20011;-96
2023/05/06 07:01:09;;;;;;;7.28;4.35;;;15.40;95.60;;;;;;6012774;23;20011;-95
2023/05/06 07:03:35;;;;;;;7.65;3.85;;;15.40;95.50;;;;;;6012007;23;20015;-96
2023/05/06 07:06:00;;;;;;;9.18;4.63;;;15.40;95.40;;;;;;6012739;23;20107;-95
2023/05/06 07:08:29;;;;;;;6.55;4.47;;;15.50;95.40;;;;;;6013136;23;20038;-96
2023/05/06 07:10:55;;;;;;;7.50;4.15;;;15.50;95.30;;;;;;5989668;23;20007;-96
2023/05/06 07:13:22;;;;;;;12.30;4.50;;;15.60;95.30;;;;;;6012139;23;20007;-96
2023/05/06 07:15:48;;;;;;;7.82;3.33;;;15.60;95.10;;;;;;6013551;23;20018;-96
2023/05/06 07:18:15;;;;;;;4.10;3.65;;;15.60;95.00;;;;;;6013594;23;20018;-96
2023/05/06 07:20:41;;;;;;;6.78;3.30;;;15.70;95.00;;;;;;6022974;23;20096;-95
2023/05/06 07:23:07;;;;;;;4.25;3.35;;;15.70;94.90;;;;;;6078171;23;20037;-95
2023/05/06 07:25:34;;;;;;;4.68;3.58;;;15.70;94.80;;;;;;6078144;23;20010;-95
2023/05/06 07:27:59;;;;;;;4.72;3.42;;;15.80;94.70;;;;;;6078349;23;20002;-95
2023/05/06 07:30:25;;;;;;;5.82;3.28;;;15.90;94.60;;;;;;6102376;23;20005;-95
2023/05/06 07:32:51;;;;;;;5.13;3.00;;;15.90;94.60;;;;;;6101971;23;20009;-95
2023/05/06 07:35:17;;;;;;;11.63;4.13;;;16.00;94.50;;;;;;6101791;23;20012;-95
2023/05/06 07:37:45;;;;;;;6.35;3.97;;;16.00;94.40;;;;;;6102366;23;20010;-96
2023/05/06 07:40:11;;;;;;;6.50;3.75;;;16.10;94.30;;;;;;6077930;23;20014;-95
2023/05/06 07:42:37;;;;;;;5.22;3.58;;;16.10;94.20;;;;;;6100444;23;20320;-95
2023/05/06 07:45:05;;;;;;;4.93;3.40;;;16.10;94.10;;;;;;6107307;23;20013;-96
2023/05/06 07:47:31;;;;;;;2.83;2.47;;;16.10;94.10;;;;;;6102044;23;20017;-96
2023/05/06 07:49:59;;;;;;;6.15;3.08;;;16.20;94.00;;;;;;6126323;23;20006;-96
2023/05/06 07:52:25;;;;;;;6.32;2.80;;;16.20;94.00;;;;;;6125630;23;20024;-96
2023/05/06 07:54:51;;;;;;;7.13;3.40;;;16.20;93.90;;;;;;6102110;23;20100;-95
2023/05/06 07:57:17;;;;;;;3.90;3.22;;;16.20;93.80;;;;;;6127200;23;20013;-94
2023/05/06 07:59:46;;;;;;;8.70;3.10;;;16.30;93.70;;;;;;6126798;23;20368;-96
2023/05/06 08:02:12;;;;;;;6.10;2.78;;;16.30;93.60;;;;;;6125892;23;20002;-95
2023/05/06 08:04:37;;;;;;;4.65;2.25;;;16.30;93.60;;;;;;6126059;23;20309;-96
2023/05/06 08:07:03;;;;;;;3.38;2.38;;;16.40;93.50;;;;;;6125991;23;20009;-95
2023/05/06 08:09:29;;;;;;;5.30;2.30;;;16.40;93.50;;;;;;6125950;23;20002;-95
2023/05/06 08:11:55;;;;;;;5.95;2.35;;;16.40;93.50;;;;;;6125820;23;19998;-95
2023/05/06 08:14:21;;;;;;;7.35;2.67;;;16.40;93.50;;;;;;6125551;23;20010;-95
2023/05/06 08:16:46;;;;;;;4.15;2.33;;;16.40;93.40;;;;;;6125718;23;20006;-95
2023/05/06 08:19:12;;;;;;;3.15;2.15;;;16.40;93.40;;;;;;6125589;23;20006;-94
2023/05/06 08:21:38;;;;;;;2.80;2.30;;;16.40;93.40;;;;;;6124752;23;20006;-94
2023/05/06 08:24:03;;;;;;;3.05;2.05;;;16.40;93.40;;;;;;6124994;23;20002;-93
2023/05/06 08:26:29;;;;;;;4.70;2.53;;;16.40;93.40;;;;;;6125327;23;20336;-94
2023/05/06 08:28:56;;;;;;;5.55;2.38;;;16.40;93.30;;;;;;6125610;23;20427;-94
2023/05/06 08:31:22;;;;;;;3.97;1.85;;;16.40;93.30;;;;;;6124842;23;20092;-94
2023/05/06 08:33:48;;;;;;;4.10;2.05;;;16.40;93.30;;;;;;6125325;23;20049;-93
2023/05/06 08:36:13;;;;;;;6.85;2.33;;;16.40;93.30;;;;;;6125898;23;20378;-94
2023/05/06 08:38:39;;;;;;;3.80;2.25;;;16.40;93.20;;;;;;6125349;23;20085;-94
2023/05/06 08:41:10;;;;;;;5.72;2.50;;;16.40;93.30;;;;;;6124772;23;20335;-94
2023/05/06 08:43:44;;;;;;;3.42;2.60;;;16.40;93.20;;;;;;6124691;23;20006;-94
2023/05/06 08:46:10;;;;;;;3.67;2.65;;;16.40;93.20;;;;;;6124913;23;20017;-94
2023/05/06 08:48:36;;;;;;;2.72;1.75;;;16.40;93.20;;;;;;6125367;23;20478;-95
2023/05/06 08:51:02;;;;;;;2.20;1.50;;;16.40;93.30;;;;;;6125318;23;20002;-93
2023/05/06 08:53:29;;;;;;;3.13;1.33;;;16.30;93.30;;;;;;6125512;23;20483;-95
2023/05/06 08:56:00;;;;;;;2.03;1.58;;;16.30;93.30;;;;;;6125222;23;20013;-95
2023/05/06 08:58:26;;;;;;;2.83;1.75;;;16.30;93.20;;;;;;6124919;23;20010;-93
2023/05/06 09:00:52;;;;;;;3.58;2.10;;;16.30;93.30;;;;;;6125319;23;20104;-94
2023/05/06 09:03:18;;;;;;;2.90;1.73;;;16.30;93.30;;;;;;6124849;23;20427;-94
2023/05/06 09:05:43;;;;;;;1.77;1.58;;;16.30;93.30;;;;;;6125134;23;20057;-94
2023/05/06 09:08:10;;;;;;;4.35;2.15;;;16.30;93.30;;;;;;6125452;23;20009;-94
2023/05/06 09:10:46;;;;;;;4.47;1.80;;;16.30;93.30;;;;;;6124659;23;20420;-94
2023/05/06 09:13:17;;;;;;;2.00;1.50;;;16.30;93.30;;;;;;6124220;23;20006;-93
2023/05/06 09:15:46;;;;;;;3.85;1.83;;;16.30;93.30;;;;;;6124868;23;20101;-94
2023/05/06 09:18:12;;;;;;;5.03;1.45;;;16.30;93.30;;;;;;6101797;23;20097;-94
2023/05/06 09:20:48;;;;;;;2.53;1.80;;;16.30;93.30;;;;;;6124458;23;20034;-94
2023/05/06 09:23:16;;;;;;;1.30;1.20;;;16.30;93.30;;;;;;6125942;23;20002;-96
2023/05/06 09:25:43;;;;;;;4.50;1.83;;;16.30;93.30;;;;;;6125947;23;20081;-95
2023/05/06 09:28:11;;;;;;;3.38;1.30;;;16.30;93.30;;;;;;6125050;23;20057;-95
2023/05/06 09:30:46;;;;;;;6.25;1.85;;;16.30;93.30;;;;;;6125400;23;20002;-95
2023/05/06 09:33:12;;;;;;;3.08;2.00;;;16.30;93.30;;;;;;6124423;23;20002;-95
2023/05/06 09:35:40;;;;;;;4.97;1.80;;;16.30;93.30;;;;;;6124715;23;20006;-95
2023/05/06 09:38:06;;;;;;;4.20;2.15;;;16.30;93.30;;;;;;6124760;23;20475;-94
2023/05/06 09:40:33;;;;;;;8.02;2.20;;;16.30;93.30;;;;;;6124750;23;20010;-93
2023/05/06 09:42:59;;;;;;;4.30;1.88;;;16.30;93.20;;;;;;6124289;23;20005;-94
2023/05/06 09:45:27;;;;;;;3.47;1.98;;;16.30;93.20;;;;;;6124781;23;20010;-94
2023/05/06 09:47:53;;;;;;;4.47;2.08;;;16.30;93.20;;;;;;6124858;23;20009;-94
2023/05/06 09:50:24;;;;;;;5.75;2.00;;;16.30;93.20;;;;;;6124990;23;20013;-94
2023/05/06 09:52:50;;;;;;;5.63;1.75;;;16.30;93.20;;;;;;6123943;23;20447;-94
2023/05/06 09:55:20;;;;;;;1.77;1.67;;;16.30;93.20;;;;;;6124167;23;20017;-94
2023/05/06 09:57:48;;;;;;;4.38;1.70;;;16.30;93.10;;;;;;6124696;23;20056;-93
2023/05/06 10:00:16;;;;;;;3.25;1.30;;;16.40;93.10;;;;;;6125340;23;20081;-94
2023/05/06 10:02:43;;;;;;;4.30;1.67;;;16.40;93.10;;;;;;6124450;23;20093;-94
2023/05/06 10:05:10;;;;;;;2.42;1.77;;;16.40;93.10;;;;;;6124382;23;20002;-95
2023/05/06 10:07:37;;;;;;;1.50;1.20;;;16.40;93.10;;;;;;6124827;23;19998;-95
2023/05/06 10:10:05;;;;;;;5.90;1.50;;;16.40;93.00;;;;;;6124542;23;20049;-95
2023/05/06 10:12:31;;;;;;;7.22;1.42;;;16.40;93.00;;;;;;6123283;23;20014;-94
2023/05/06 10:14:57;;;;;;;2.80;1.20;;;16.40;93.00;;;;;;6124696;23;20331;-94
2023/05/06 10:17:27;;;;;;;3.47;1.50;;;16.40;93.00;;;;;;6124659;23;20002;-94
2023/05/06 10:19:56;;;;;;;;;;;16.40;93.00;;;;;;6125382;23;20000;-96
2023/05/06 10:22:42;;;;;;;2.22;1.08;;;16.40;93.00;;;;;;6124128;23;19901;-96
2023/05/06 10:25:28;;;;;;;2.83;1.83;;;16.40;92.90;;;;;;6124693;23;20017;-95
2023/05/06 10:27:54;;;;;;;1.85;1.15;;;16.40;92.90;;;;;;6124416;23;20061;-95
2023/05/06 10:30:21;;;;;;;2.22;1.33;;;16.40;92.90;;;;;;6124129;23;20371;-95
2023/05/06 10:32:50;;;;;;;4.30;1.80;;;16.40;92.90;;;;;;6123932;23;20012;-95
2023/05/06 10:35:39;;;;;;;3.23;1.63;;;16.40;92.90;;;;;;6123840;23;20010;-93
2023/05/06 10:38:28;;;;;;;4.07;1.65;;;16.40;92.90;;;;;;6124625;23;20033;-95
2023/05/06 10:40:55;;;;;;;5.65;2.08;;;16.40;92.90;;;;;;6123994;23;20014;-92
2023/05/06 10:43:26;;;;;;;5.05;1.80;;;16.40;92.90;;;;;;6124035;23;20045;-93
2023/05/06 10:46:01;;;;;;;1.75;1.58;;;16.40;92.80;;;;;;6128966;23;20009;-94
2023/05/06 10:48:27;;;;;;;1.80;1.63;;;16.40;92.80;;;;;;6129147;23;20005;-95
2023/05/06 10:51:15;;;;;;;4.07;1.88;;;16.40;92.80;;;;;;6128811;23;20008;-94
2023/05/06 10:54:18;;;;;;;4.82;1.90;;;16.40;92.80;;;;;;6128429;23;20017;-95
2023/05/06 10:56:50;;;;;;;2.38;1.60;;;16.40;92.70;;;;;;6129363;23;20435;-95
2023/05/06 10:59:22;;;;;;;1.70;1.60;;;16.40;92.80;;;;;;6129039;23;20008;-96
2023/05/06 11:02:18;;;;;;;2.38;1.70;;;16.40;92.80;;;;;;6129873;23;20364;-95
2023/05/06 11:04:50;;;;;;;2.05;1.73;;;16.40;92.90;;;;;;6153452;23;20010;-94
2023/05/06 11:07:22;;;;;;;5.65;1.95;;;16.30;92.90;;;;;;6129842;23;20002;-95
2023/05/06 11:09:58;;;;;;;5.47;1.70;;;16.30;92.90;;;;;;6129871;23;20028;-95
2023/05/06 11:12:47;;;;;;;5.03;1.45;;;16.40;93.00;;;;;;6128661;23;20439;-95
2023/05/06 11:15:40;;;;;;;2.03;1.60;;;16.30;93.00;;;;;;6129474;23;20085;-95
2023/05/06 11:18:26;;;;;;;3.03;1.40;;;16.30;93.00;;;;;;6129012;23;20006;-95
2023/05/06 11:21:01;;;;;;;6.50;1.55;;;16.40;93.00;;;;;;6129553;23;20001;-95
2023/05/06 11:23:48;;;;;;;7.05;1.50;;;16.30;93.00;;;;;;6129168;23;20044;-95
2023/05/06 11:26:15;;;;;;;1.40;1.17;;;16.30;93.00;;;;;;6129270;23;20005;-95
2023/05/06 11:28:45;;;;;;;2.28;1.77;;;16.30;93.00;;;;;;6129028;23;20005;-95
2023/05/06 11:31:15;;;;;;;2.05;1.70;;;16.30;92.90;;;;;;6128447;23;20145;-94
2023/05/06 11:33:46;;;;;;;2.60;1.85;;;16.30;93.00;;;;;;6129347;23;20489;-93
2023/05/06 11:36:16;;;;;;;3.28;1.98;;;16.30;93.00;;;;;;6128969;23;20013;-94
2023/05/06 11:38:44;;;;;;;3.42;1.90;;;16.30;92.90;;;;;;6128841;23;20013;-94
2023/05/06 11:41:10;;;;;;;4.47;1.60;;;16.30;92.90;;;;;;6128421;23;20414;-93
2023/05/06 11:43:36;;;;;;;2.33;1.58;;;16.30;92.90;;;;;;6128734;23;20033;-95
2023/05/06 11:46:02;;;;;;;1.92;1.25;;;16.30;92.80;;;;;;6124123;23;20014;-96
2023/05/06 11:48:27;;;;;;;6.00;1.80;;;16.40;92.80;;;;;;6123913;23;20029;-96
2023/05/06 11:50:54;;;;;;;1.40;1.30;;;16.30;92.80;;;;;;6124300;23;20009;-95
2023/05/06 11:53:21;;;;;;;3.03;1.80;;;16.40;92.80;;;;;;6124683;23;20010;-94
2023/05/06 11:55:49;;;;;;;2.33;1.67;;;16.40;92.80;;;;;;6123688;23;20010;-96
2023/05/06 11:58:16;;;;;;;5.65;1.48;;;16.40;92.80;;;;;;6099892;23;20042;-95
2023/05/06 12:00:51;;;;;;;3.83;1.48;;;16.40;92.80;;;;;;6123686;23;20038;-95
2023/05/06 12:03:21;;;;;;;8.25;1.73;;;16.40;92.80;;;;;;6124343;23;20010;-95
2023/05/06 12:05:48;;;;;;;6.20;1.73;;;16.30;92.80;;;;;;6125953;23;20002;-96
2023/05/06 12:08:18;;;;;;;8.02;1.42;;;16.30;93.10;;;;;;6101502;23;20010;-96
2023/05/06 12:10:44;;;;;;;;;;;16.30;92.80;;;;;;6126453;23;20029;-95
2023/05/06 12:13:11;;;;;;;4.68;1.23;;;16.40;92.90;;;;;;6125718;23;20246;-96
2023/05/06 12:15:37;;;;;;;1.85;1.48;;;16.30;92.80;;;;;;6125880;23;20335;-96
2023/05/06 12:18:04;;;;;;;6.13;1.30;;;16.30;92.80;;;;;;6125848;23;20020;-94
2023/05/06 12:20:30;;;;;;;1.33;1.23;;;16.30;92.80;;;;;;6126706;23;20006;-94
2023/05/06 12:23:15;;;;;;;2.35;1.23;;;16.40;92.80;;;;;;6126324;23;20017;-94
2023/05/06 12:25:43;;;;;;;2.50;1.30;;;16.30;92.70;;;;;;6125937;23;20048;-96
2023/05/06 12:28:16;;;;;;;1.10;1.00;;;16.40;92.70;;;;;;6126198;23;20071;-95
2023/05/06 12:30:42;;;;;;;2.42;1.63;;;16.40;92.70;;;;;;6125333;23;20435;-95
2023/05/06 12:33:10;;;;;;;5.13;1.33;;;16.40;92.60;;;;;;6125716;23;20042;-95
2023/05/06 12:35:36;;;;;;;2.47;1.33;;;16.40;92.60;;;;;;6125810;23;20455;-94
2023/05/06 12:38:14;;;;;;;2.38;1.40;;;16.40;92.60;;;;;;6125049;23;20020;-93
2023/05/06 12:40:41;;;;;;;1.42;1.23;;;16.40;92.70;;;;;;6126139;23;20009;-94
2023/05/06 12:43:08;;;;;;;2.00;1.20;;;16.40;92.70;;;;;;6125301;23;20017;-93
2023/05/06 12:45:34;;;;;;;2.17;1.35;;;16.40;92.70;;;;;;6130198;23;20009;-93
2023/05/06 12:48:01;;;;;;;5.70;1.77;;;16.40;92.70;;;;;;6130120;23;20089;-94
2023/05/06 12:50:30;;;;;;;3.58;1.40;;;16.40;92.70;;;;;;6130259;23;20327;-95
2023/05/06 12:52:56;;;;;;;1.63;1.37;;;16.40;92.70;;;;;;6129573;23;20006;-95